Marlboro, VT (05344)

6:51 PM EDT on April 25, 2017 (GMT -0400)
Lower Lake Raponda Rd | | Change Station

Elev 1867 ft 42.87 °N, 72.82 °W | Updated 4 seconds ago

Rain
Rain
42.7 °F
Feels Like 43 °F
N
1.0
Wind Variable Wind from South

Today
High -- | Low -- °F
--% Chance of Precip.
Yesterday
High -- | Low -- °F
Precip. -- in
Pressure 30.22 in
Visibility 9.0 miles
Clouds Overcast 1400 ft
Windchill 43 °F
Dew Point 42 °F
Humidity 98%
Rainfall 0.18 in
Snow Depth Not available.
5:53 AM 7:45 PM
Waning Crescent, 0% visible
METAR KEEN 252156Z AUTO 36006KT 9SM -RA OVC014 08/07 A3016 RMK AO2 SLP233 P0003 T00830067
Pressure 30.22 in
Visibility 9.0 miles
Clouds Overcast 1400 ft
Windchill 43 °F
Dew Point 42 °F
Humidity 98%
Rainfall 0.18 in
Snow Depth Not available.
5:53 AM 7:45 PM
Waning Crescent, 0% visible
METAR KEEN 252156Z AUTO 36006KT 9SM -RA OVC014 08/07 A3016 RMK AO2 SLP233 P0003 T00830067

Get Severe Weather Alerts

Thanks for signing up!

Be on the lookout for a verification email in your inbox.

You'll start receiving the daily forecast at 8 AM.

×

10-Day Weather Forecast

Almanac

Astronomy

Apr. 25, 2017 Rise Set
Actual Time
Civil Twilight
Nautical Twilight
Astronomical Twilight
Moon
Length of Visible Light
Length of Day
Tomorrow will be .
, % of the Moon is Illuminated

Today's Extremes

State Highs State Lows

Community

WunderPhotos

WunderBlog® & News

Nearby

Air Quality

  Air Quality AQ Index Pollutant
Not available.

Snow Depth

Station Depth Elevation

Earthquake Activity

City Distance Mag. Time & Date
Minimum magnitude displayed is 2.5.

Coastal Water Temperatures

Place Temperature

Stations

Nearby Weather Stations

Station Location Temp. Windchill Dew Point Humidity Wind Precip. Elev Updated Type
                   

Watches & Warnings

There are currently no watches in effect.